Observations for CHRISTCHURCH IN, New Zealand (NZCH)

NZCH 230530Z AUTO 07013KT 9999 NCD 22/17 Q1009 NOSIG
NZCH 230500Z AUTO 08012KT 040V100 9999 NCD 23/17 Q1009 NOSIG
NZCH 230430Z AUTO 07014KT 9999 NCD 23/17 Q1010 NOSIG
NZCH 230400Z AUTO 07014KT 9999 NCD 23/17 Q1010 NOSIG
NZCH 230330Z AUTO 07014KT 9999 NCD 23/17 Q1010 NOSIG
NZCH 230300Z AUTO 07015KT 9999 NCD 23/17 Q1010 NOSIG
NZCH 230230Z AUTO 07014KT 9999 SCT010/// 22/17 Q1011 NOSIG  
NZCH 230200Z AUTO 08015KT 9999 BKN010/// 21/17 Q1011 NOSIG  
NZCH 230130Z AUTO 07015KT 9999 FEW011/// 23/18 Q1011 NOSIG  
NZCH 230100Z AUTO 05013KT 9999 NCD 23/18 Q1011 NOSIG
NZCH 230030Z AUTO 07013KT 040V110 9999 NCD 24/18 Q1011 NOSIG
NZCH 230000Z AUTO 08012KT 050V110 9999 NCD 24/18 Q1011 NOSIG
NZCH 222330Z AUTO 07009KT 040V110 9999 NCD 23/18 Q1012 NOSIG
NZCH 222300Z AUTO 07010KT 040V120 9999 NCD 23/18 Q1012 NOSIG
NZCH 222230Z AUTO 07010KT 030V100 9999 NCD 22/18 Q1012 NOSIG
NZCH 222200Z AUTO 07009KT 030V100 9999 FEW013/// 22/17 Q1012 NOSIG  
NZCH 222130Z AUTO 05009KT 020V100 9999 BKN012/// 22/17 Q1013 BECMG SCT010   
NZCH 222100Z AUTO 04007KT 360V060 9999 OVC011/// 20/17 Q1013 BECMG SCT010   
NZCH 222030Z AUTO 04008KT 9999 OVC010/// 20/17 Q1013 BECMG SCT010   
NZCH 222000Z AUTO 04009KT 9999 OVC010/// 19/17 Q1013 BECMG SCT010   
NZCH 221930Z AUTO 03006KT 9999 OVC010/// 19/17 Q1013 NOSIG  
NZCH 221900Z AUTO 03004KT 360V060 9999 OVC011/// 19/16 Q1013 NOSIG  
NZCH 221830Z AUTO 05003KT 9999 OVC012/// 18/17 Q1013 NOSIG  
NZCH 221800Z AUTO 05005KT 9999 OVC012/// 18/16 Q1013 NOSIG  
NZCH 221730Z AUTO 04003KT 9999 OVC013/// 18/17 Q1013 NOSIG  
NZCH 221700Z AUTO 04004KT 9999 FEW010/// OVC014/// 18/16 Q1013 NOSIG
NZCH 221630Z AUTO 04003KT 9999 OVC011/// 18/16 Q1013 NOSIG  
NZCH 221600Z AUTO 04003KT 9999 OVC011/// 18/16 Q1013 NOSIG  
NZCH 221530Z AUTO 03003KT 9999 OVC010/// 18/16 Q1012 NOSIG  
NZCH 221500Z AUTO 01002KT 9999 OVC010/// 18/16 Q1013 NOSIG  
NZCH 221430Z AUTO 04003KT 9999 OVC010/// 18/16 Q1013 NOSIG  
NZCH 221400Z AUTO 13003KT 9999 OVC010/// 18/16 Q1013 NOSIG  
NZCH 221330Z AUTO 10005KT 050V140 9999 OVC009/// 18/16 Q1013 NOSIG  
NZCH 221300Z AUTO 08005KT 9999 OVC009/// 19/17 Q1013 NOSIG  
NZCH 221230Z AUTO 06006KT 040V100 9999 OVC009/// 19/17 Q1013 NOSIG  
NZCH 221200Z AUTO 06006KT 9999 OVC009/// 19/17 Q1013 NOSIG  
NZCH 221130Z AUTO 08006KT 050V110 9999 OVC009/// 19/17 Q1013 NOSIG  
NZCH 221100Z AUTO 06007KT 9999 OVC009/// 19/17 Q1012 NOSIG  
NZCH 221030Z AUTO 05008KT 9999 OVC009/// 19/17 Q1012 NOSIG  
NZCH 221000Z AUTO 05008KT 9999 BKN009/// 19/17 Q1012 NOSIG  
NZCH 220930Z AUTO 06008KT 9999 BKN010/// 19/17 Q1012 BECMG BKN008   
NZCH 220900Z AUTO 07008KT 9999 OVC011/// 19/17 Q1012 BECMG BKN008   
NZCH 220830Z AUTO 05007KT 9999 BKN012/// 19/17 Q1012 BECMG FM0900 BKN008
NZCH 220800Z AUTO 06005KT 9999 BKN013/// BKN060/// 19/17 Q1012 BECMG FM0900 BKN008  
NZCH 220730Z AUTO 06006KT 020V100 9999 BKN012/// 20/17 Q1012 NOSIG  
NZCH 220700Z AUTO 04007KT 9999 -RA BKN013/// 20/17 Q1011 NOSIG  
NZCH 220630Z AUTO 06007KT 9999 SCT013/// BKN070/// 20/17 Q1011 BECMG BKN012 
NZCH 220600Z AUTO 06008KT 030V110 9999 BKN012/// OVC070/// 20/17 Q1011 NOSIG
NZCH 220530Z AUTO 07008KT 9999 OVC012/// 20/17 Q1011 NOSIG  
NZCH 220500Z AUTO 06010KT 9999 BKN012/// 21/17 Q1011 NOSIG